createdAt,value
2024-02-14T00:00:52.665Z,6.40
2024-02-14T00:03:19.939Z,6.28
2024-02-14T00:05:46.724Z,6.18
2024-02-14T00:08:16.012Z,8.60
2024-02-14T00:10:44.694Z,7.03
2024-02-14T00:13:11.978Z,6.10
2024-02-14T00:15:38.692Z,7.85
2024-02-14T00:18:06.187Z,10.20
2024-02-14T00:20:33.783Z,8.30
2024-02-14T00:23:00.555Z,6.78
2024-02-14T00:25:27.393Z,7.75
2024-02-14T00:27:55.356Z,5.60
2024-02-14T00:30:24.295Z,6.07
2024-02-14T00:32:51.736Z,6.83
2024-02-14T00:35:18.563Z,5.00
2024-02-14T00:37:45.242Z,4.45
2024-02-14T00:40:12.691Z,5.53
2024-02-14T00:42:39.407Z,4.25
2024-02-14T00:45:10.065Z,5.17
2024-02-14T00:47:37.352Z,6.07
2024-02-14T00:50:04.391Z,6.97
2024-02-14T00:52:31.099Z,6.03
2024-02-14T00:54:58.500Z,6.82
2024-02-14T00:57:28.022Z,5.33
2024-02-14T00:59:56.469Z,5.45
2024-02-14T01:02:23.291Z,4.85
2024-02-14T01:04:50.079Z,4.45
2024-02-14T01:07:16.728Z,5.03
2024-02-14T01:09:43.415Z,6.70
2024-02-14T01:12:10.156Z,3.58
2024-02-14T01:14:37.061Z,4.45
2024-02-14T01:17:04.949Z,4.70
2024-02-14T01:19:31.783Z,4.75
2024-02-14T01:21:58.567Z,5.67
2024-02-14T01:24:28.017Z,4.35
2024-02-14T01:26:56.191Z,5.28
2024-02-14T01:29:24.424Z,6.53
2024-02-14T01:31:51.571Z,3.63
2024-02-14T01:34:18.559Z,4.50
2024-02-14T01:36:45.433Z,4.97
2024-02-14T01:39:12.173Z,4.50
2024-02-14T01:41:39.722Z,3.85
2024-02-14T01:44:06.634Z,4.50
2024-02-14T01:46:33.341Z,4.67
2024-02-14T01:49:00.297Z,3.65
2024-02-14T01:51:27.180Z,4.13
2024-02-14T01:53:54.067Z,4.80
2024-02-14T01:56:20.739Z,5.53
2024-02-14T01:58:47.670Z,3.07
2024-02-14T02:01:14.418Z,4.13
2024-02-14T02:03:41.149Z,4.57
2024-02-14T02:06:08.180Z,3.80
2024-02-14T02:08:35.101Z,4.20
2024-02-14T02:11:01.846Z,4.87
2024-02-14T02:13:28.574Z,4.07
2024-02-14T02:15:55.345Z,4.75
2024-02-14T02:18:22.360Z,2.63
2024-02-14T02:20:49.470Z,5.80
2024-02-14T02:23:16.281Z,4.53
2024-02-14T02:25:43.643Z,3.08
2024-02-14T02:28:10.464Z,3.60
2024-02-14T02:30:37.675Z,3.97
2024-02-14T02:33:05.403Z,4.78
2024-02-14T02:35:32.318Z,4.10
2024-02-14T02:37:59.213Z,4.43
2024-02-14T02:40:26.270Z,4.45
2024-02-14T02:42:52.926Z,4.28
2024-02-14T02:45:19.867Z,2.72
2024-02-14T02:47:46.670Z,4.80
2024-02-14T02:50:13.440Z,4.20
2024-02-14T02:52:41.644Z,4.53
2024-02-14T02:55:08.475Z,4.75
2024-02-14T02:57:37.975Z,4.82
2024-02-14T03:00:06.231Z,7.63
2024-02-14T03:02:33.097Z,6.20
2024-02-14T03:05:00.292Z,6.05
2024-02-14T03:07:27.830Z,3.92
2024-02-14T03:09:54.515Z,5.18
2024-02-14T03:12:21.788Z,5.03
2024-02-14T03:14:48.623Z,4.68
2024-02-14T03:17:15.342Z,5.07
2024-02-14T03:19:42.205Z,5.32
2024-02-14T03:22:10.326Z,5.30
2024-02-14T03:24:38.405Z,7.03
2024-02-14T03:27:08.211Z,4.68
2024-02-14T03:29:36.687Z,4.68
2024-02-14T03:32:05.803Z,4.68
2024-02-14T03:34:34.977Z,4.43
2024-02-14T03:37:03.388Z,4.77
2024-02-14T03:39:30.881Z,4.28
2024-02-14T03:41:57.921Z,6.13
2024-02-14T03:44:24.666Z,4.80
2024-02-14T03:46:51.455Z,7.15
2024-02-14T03:49:18.421Z,6.50
2024-02-14T03:51:45.361Z,5.15
2024-02-14T03:54:13.242Z,4.97
2024-02-14T03:56:40.280Z,5.15
2024-02-14T03:59:07.265Z,5.55
2024-02-14T04:01:34.122Z,4.37
2024-02-14T04:04:01.061Z,7.65
2024-02-14T04:06:28.351Z,4.43
2024-02-14T04:08:55.282Z,6.00
2024-02-14T04:11:22.072Z,4.55
2024-02-14T04:13:48.731Z,5.00
2024-02-14T04:16:15.406Z,5.30
2024-02-14T04:18:43.961Z,6.13
2024-02-14T04:21:11.045Z,6.60
2024-02-14T04:23:37.874Z,5.57
2024-02-14T04:26:04.743Z,6.13
2024-02-14T04:28:31.386Z,6.07
2024-02-14T04:30:58.223Z,6.05
2024-02-14T04:33:25.645Z,5.95
2024-02-14T04:35:52.549Z,13.90
2024-02-14T04:38:20.957Z,5.50
2024-02-14T04:40:47.636Z,5.00
2024-02-14T04:43:14.515Z,7.07
2024-02-14T04:45:41.304Z,7.78
2024-02-14T04:48:09.062Z,7.15
2024-02-14T04:50:36.128Z,4.40
2024-02-14T04:53:02.956Z,6.45
2024-02-14T04:55:30.407Z,7.45
2024-02-14T04:57:57.260Z,6.10
2024-02-14T05:00:24.157Z,6.38
2024-02-14T05:02:51.902Z,4.60
2024-02-14T05:05:18.778Z,7.00
2024-02-14T05:07:45.580Z,6.20
2024-02-14T05:10:12.315Z,5.40
2024-02-14T05:12:38.987Z,7.07
2024-02-14T05:15:06.200Z,6.67
2024-02-14T05:17:33.458Z,7.70
2024-02-14T05:20:00.689Z,5.78
2024-02-14T05:22:27.675Z,6.70
2024-02-14T05:24:54.469Z,7.25
2024-02-14T05:27:21.229Z,10.87
2024-02-14T05:29:48.095Z,8.40
2024-02-14T05:32:15.128Z,7.15
2024-02-14T05:34:43.106Z,8.55
2024-02-14T05:37:09.874Z,6.68
2024-02-14T05:39:36.547Z,8.77
2024-02-14T05:42:03.950Z,6.68
2024-02-14T05:44:31.526Z,8.48
2024-02-14T05:46:58.373Z,8.55
2024-02-14T05:49:26.044Z,10.35
2024-02-14T05:51:54.519Z,7.23
2024-02-14T05:54:21.247Z,8.15
2024-02-14T05:56:48.603Z,9.52
2024-02-14T05:59:15.361Z,8.25
2024-02-14T06:01:42.159Z,9.52
2024-02-14T06:04:08.943Z,6.90
2024-02-14T06:06:35.799Z,10.20
2024-02-14T06:09:03.794Z,9.65
2024-02-14T06:11:30.828Z,11.43
2024-02-14T06:13:57.507Z,10.02
2024-02-14T06:16:24.210Z,9.97
2024-02-14T06:18:51.113Z,9.85
2024-02-14T06:21:17.992Z,9.77
2024-02-14T06:23:48.056Z,8.52
2024-02-14T06:26:15.663Z,11.88
2024-02-14T06:28:42.382Z,12.77
2024-02-14T06:31:09.028Z,16.83
2024-02-14T06:33:36.078Z,11.30
2024-02-14T06:36:03.169Z,12.05
2024-02-14T06:38:30.050Z,11.63
2024-02-14T06:40:56.792Z,11.60
2024-02-14T06:43:23.501Z,11.80
2024-02-14T06:45:50.221Z,15.05
2024-02-14T06:48:17.051Z,12.02
2024-02-14T06:50:43.863Z,13.60
2024-02-14T06:53:10.564Z,11.33
2024-02-14T06:55:37.246Z,9.85
2024-02-14T06:58:06.155Z,9.88
2024-02-14T07:00:33.696Z,12.10
2024-02-14T07:03:00.559Z,10.25
2024-02-14T07:05:29.054Z,11.83
2024-02-14T07:07:56.626Z,11.20
2024-02-14T07:10:23.411Z,11.10
2024-02-14T07:12:50.096Z,11.63
2024-02-14T07:15:17.068Z,12.93
2024-02-14T07:17:44.166Z,10.70
2024-02-14T07:20:11.318Z,10.38
2024-02-14T07:22:38.131Z,14.27
2024-02-14T07:25:06.234Z,13.32
2024-02-14T07:27:33.137Z,14.35
2024-02-14T07:30:00.069Z,12.63
2024-02-14T07:32:28.954Z,16.13
2024-02-14T07:34:55.858Z,13.90
2024-02-14T07:37:22.733Z,13.60
2024-02-14T07:39:49.516Z,15.35
2024-02-14T07:42:16.647Z,11.57
2024-02-14T07:44:43.965Z,13.85
2024-02-14T07:47:10.795Z,12.30
2024-02-14T07:49:37.473Z,11.60
2024-02-14T07:52:04.767Z,11.32
2024-02-14T07:54:31.771Z,12.17
2024-02-14T07:56:58.454Z,11.75
2024-02-14T07:59:25.248Z,10.80
2024-02-14T08:01:52.094Z,11.05
2024-02-14T08:04:18.981Z,14.93
2024-02-14T08:06:51.611Z,11.17
2024-02-14T08:09:18.398Z,12.20
2024-02-14T08:11:45.090Z,11.05
2024-02-14T08:14:13.755Z,10.05
2024-02-14T08:16:40.493Z,10.40
2024-02-14T08:19:07.471Z,10.37
2024-02-14T08:21:34.467Z,8.50
2024-02-14T08:24:02.091Z,10.95
2024-02-14T08:26:29.634Z,8.75
2024-02-14T08:28:56.669Z,11.90
2024-02-14T08:31:23.602Z,8.47
2024-02-14T08:33:50.759Z,10.38
2024-02-14T08:36:21.234Z,11.10
2024-02-14T08:38:48.261Z,9.80
2024-02-14T08:41:15.515Z,9.50
2024-02-14T08:43:45.167Z,9.57
2024-02-14T08:46:14.034Z,8.02
2024-02-14T08:48:47.165Z,8.90
2024-02-14T08:51:15.005Z,9.13
2024-02-14T08:53:46.379Z,9.35
2024-02-14T08:56:14.048Z,9.47
2024-02-14T08:58:41.016Z,9.20
2024-02-14T09:01:14.124Z,9.65
2024-02-14T09:03:49.816Z,10.77
2024-02-14T09:06:19.131Z,10.00
2024-02-14T09:08:45.998Z,11.00
2024-02-14T09:11:13.654Z,9.15
2024-02-14T09:13:41.824Z,8.80
2024-02-14T09:16:12.465Z,9.40
2024-02-14T09:18:39.658Z,8.65
2024-02-14T09:21:07.215Z,7.30
2024-02-14T09:23:34.747Z,8.32
2024-02-14T09:26:02.915Z,8.30
2024-02-14T09:28:30.574Z,7.78
2024-02-14T09:30:57.367Z,8.93
2024-02-14T09:33:24.273Z,9.80
2024-02-14T09:35:53.587Z,8.70
2024-02-14T09:38:20.645Z,9.95
2024-02-14T09:40:47.446Z,9.75
2024-02-14T09:43:39.837Z,9.32
2024-02-14T09:46:08.409Z,7.03
2024-02-14T09:48:35.274Z,6.28
2024-02-14T09:51:02.099Z,7.15
2024-02-14T09:53:28.758Z,7.10
2024-02-14T09:55:55.831Z,7.72
2024-02-14T09:58:22.514Z,8.13
2024-02-14T10:00:49.322Z,6.65
2024-02-14T10:03:17.160Z,7.13
2024-02-14T10:05:44.420Z,5.90
2024-02-14T10:08:11.533Z,6.35
2024-02-14T10:10:39.074Z,6.43
2024-02-14T10:13:07.317Z,5.43
2024-02-14T10:15:34.703Z,5.25
2024-02-14T10:18:02.235Z,6.65
2024-02-14T10:20:31.031Z,8.10
2024-02-14T10:23:04.583Z,6.50
2024-02-14T10:25:32.783Z,6.47
2024-02-14T10:28:04.872Z,7.30
2024-02-14T10:30:31.683Z,6.68
2024-02-14T10:33:07.430Z,7.15
2024-02-14T10:35:42.717Z,8.53
2024-02-14T10:38:10.792Z,8.57
2024-02-14T10:40:39.465Z,6.95
2024-02-14T10:43:12.022Z,7.00
2024-02-14T10:45:38.722Z,8.52
2024-02-14T10:48:06.240Z,7.93
2024-02-14T10:50:34.838Z,6.53
2024-02-14T10:53:02.803Z,8.30
2024-02-14T10:55:31.123Z,6.80
2024-02-14T10:57:58.845Z,8.32
2024-02-14T11:00:25.541Z,7.87
2024-02-14T11:02:52.821Z,8.27
2024-02-14T11:05:20.543Z,8.90
2024-02-14T11:07:51.962Z,8.00
2024-02-14T11:10:18.866Z,7.03
2024-02-14T11:12:47.900Z,7.67
2024-02-14T11:15:21.987Z,6.97
2024-02-14T11:17:53.581Z,9.05
2024-02-14T11:20:23.003Z,7.93
2024-02-14T11:23:04.457Z,7.70
2024-02-14T11:25:32.398Z,8.63
2024-02-14T11:27:59.650Z,8.02
2024-02-14T11:30:39.177Z,7.72
2024-02-14T11:33:22.240Z,7.50
2024-02-14T11:35:54.186Z,8.80
2024-02-14T11:38:21.374Z,8.17
2024-02-14T11:40:48.124Z,8.00
2024-02-14T11:43:15.789Z,7.70
2024-02-14T11:45:43.180Z,7.65
2024-02-14T11:48:11.682Z,7.32
2024-02-14T11:50:40.377Z,8.23
2024-02-14T11:53:10.021Z,7.85
2024-02-14T11:55:38.410Z,7.38
2024-02-14T11:58:11.851Z,8.27
2024-02-14T12:00:42.103Z,7.05
2024-02-14T12:03:20.562Z,7.93
2024-02-14T12:05:49.156Z,4.93
2024-02-14T12:08:16.255Z,5.00
2024-02-14T12:10:50.754Z,4.97
2024-02-14T12:13:19.623Z,5.93
2024-02-14T12:15:47.127Z,3.73
2024-02-14T12:18:15.151Z,4.88
2024-02-14T12:20:42.733Z,5.10
2024-02-14T12:23:09.479Z,6.63
2024-02-14T12:25:36.266Z,6.10
2024-02-14T12:28:03.054Z,6.27
2024-02-14T12:30:44.515Z,5.47
2024-02-14T12:33:12.580Z,5.15
2024-02-14T12:35:43.392Z,5.80
2024-02-14T12:38:10.759Z,5.53
2024-02-14T12:40:37.787Z,5.07
2024-02-14T12:43:06.967Z,7.00
2024-02-14T12:45:33.757Z,8.07
2024-02-14T12:48:00.725Z,5.30
2024-02-14T12:50:27.643Z,5.05
2024-02-14T12:52:54.352Z,6.73
2024-02-14T12:55:21.029Z,5.28
2024-02-14T12:57:48.977Z,5.15
2024-02-14T13:00:16.597Z,4.97
2024-02-14T13:02:43.942Z,4.47
2024-02-14T13:05:10.855Z,4.63
2024-02-14T13:07:37.639Z,7.65
2024-02-14T13:10:04.485Z,6.03
2024-02-14T13:12:31.280Z,4.72
2024-02-14T13:14:58.230Z,6.38
2024-02-14T13:17:26.956Z,5.83
2024-02-14T13:19:54.544Z,5.03
2024-02-14T13:22:21.476Z,5.25
2024-02-14T13:24:48.260Z,6.45
2024-02-14T13:27:15.619Z,5.25
2024-02-14T13:29:42.661Z,7.63
2024-02-14T13:32:09.480Z,5.55
2024-02-14T13:34:36.435Z,4.70
2024-02-14T13:37:03.727Z,5.93
2024-02-14T13:39:30.395Z,7.45
2024-02-14T13:41:59.494Z,7.33
2024-02-14T13:44:26.862Z,7.10
2024-02-14T13:46:54.356Z,6.85
2024-02-14T13:49:24.403Z,9.13
2024-02-14T13:51:54.255Z,7.18
2024-02-14T13:54:21.306Z,5.87
2024-02-14T13:56:49.642Z,6.88
2024-02-14T13:59:16.327Z,6.40
2024-02-14T14:01:43.233Z,7.60
2024-02-14T14:04:09.959Z,6.35
2024-02-14T14:06:36.861Z,7.10
2024-02-14T14:09:09.084Z,7.20
2024-02-14T14:11:35.967Z,7.22
2024-02-14T14:14:02.733Z,7.20
2024-02-14T14:16:29.485Z,6.57
2024-02-14T14:18:56.496Z,7.20
2024-02-14T14:21:23.489Z,6.30
2024-02-14T14:23:50.276Z,7.00
2024-02-14T14:26:17.033Z,8.18
2024-02-14T14:28:43.858Z,7.78
2024-02-14T14:31:13.387Z,6.10
2024-02-14T14:33:40.487Z,7.68
2024-02-14T14:36:07.576Z,6.63
2024-02-14T14:38:34.488Z,7.78
2024-02-14T14:41:01.210Z,7.82
2024-02-14T14:43:29.115Z,6.70
2024-02-14T14:45:58.166Z,7.28
2024-02-14T14:48:25.270Z,8.98
2024-02-14T14:50:52.246Z,8.77
2024-02-14T14:53:19.134Z,7.00
2024-02-14T14:55:54.193Z,9.00
2024-02-14T14:58:23.105Z,8.20
2024-02-14T15:00:56.081Z,8.32
2024-02-14T15:03:23.531Z,7.32
2024-02-14T15:05:50.545Z,7.68
2024-02-14T15:08:19.241Z,8.00
2024-02-14T15:10:45.992Z,7.43
2024-02-14T15:13:14.547Z,13.52
2024-02-14T15:15:41.301Z,7.70
2024-02-14T15:18:08.155Z,8.80
2024-02-14T15:20:37.326Z,9.00
2024-02-14T15:23:04.591Z,8.57
2024-02-14T15:25:31.324Z,8.43
2024-02-14T15:27:58.403Z,8.95
2024-02-14T15:30:44.224Z,11.25
2024-02-14T15:33:27.569Z,9.27
2024-02-14T15:35:55.136Z,7.78
2024-02-14T15:38:22.013Z,8.13
2024-02-14T15:40:48.933Z,9.02
2024-02-14T15:43:15.699Z,7.68
2024-02-14T15:45:42.492Z,8.93
2024-02-14T15:48:09.624Z,11.13
2024-02-14T15:50:36.825Z,9.63
2024-02-14T15:53:05.314Z,10.52
2024-02-14T15:55:35.955Z,8.55
2024-02-14T15:58:02.943Z,11.23
2024-02-14T16:00:32.717Z,10.30
2024-02-14T16:03:00.530Z,8.70
2024-02-14T16:05:28.265Z,8.68
2024-02-14T16:07:55.687Z,7.75
2024-02-14T16:10:22.435Z,10.33
2024-02-14T16:12:49.693Z,11.98
2024-02-14T16:15:20.312Z,9.20
2024-02-14T16:17:47.603Z,10.75
2024-02-14T16:20:15.170Z,11.20
2024-02-14T16:22:42.113Z,10.60
2024-02-14T16:25:09.333Z,13.00
2024-02-14T16:27:37.113Z,14.48
2024-02-14T16:30:07.549Z,13.80
2024-02-14T16:32:34.952Z,21.02
2024-02-14T16:35:05.990Z,19.53
2024-02-14T16:37:32.862Z,19.65
2024-02-14T16:39:59.812Z,13.40
2024-02-14T16:42:26.704Z,15.38
2024-02-14T16:44:53.616Z,16.48
2024-02-14T16:47:20.864Z,14.20
2024-02-14T16:49:47.593Z,10.85
2024-02-14T16:52:14.300Z,15.07
2024-02-14T16:54:41.635Z,18.58
2024-02-14T16:57:11.842Z,14.55
2024-02-14T16:59:41.951Z,19.30
2024-02-14T17:02:09.322Z,10.90
2024-02-14T17:04:36.167Z,10.20
2024-02-14T17:07:03.034Z,8.88
2024-02-14T17:09:29.915Z,9.32
2024-02-14T17:11:56.969Z,10.47
2024-02-14T17:14:25.240Z,11.77
2024-02-14T17:16:56.768Z,9.88
2024-02-14T17:19:24.087Z,10.90
2024-02-14T17:21:51.012Z,12.45
2024-02-14T17:24:18.026Z,11.20
2024-02-14T17:26:44.842Z,9.32
2024-02-14T17:29:11.903Z,10.75
2024-02-14T17:31:39.393Z,9.07
2024-02-14T17:34:06.732Z,13.20
2024-02-14T17:36:33.624Z,12.23
2024-02-14T17:39:00.767Z,11.02
2024-02-14T17:41:27.615Z,11.15
2024-02-14T17:43:54.715Z,12.52
2024-02-14T17:46:21.874Z,11.50
2024-02-14T17:48:52.391Z,12.17
2024-02-14T17:51:19.337Z,11.20
2024-02-14T17:53:46.075Z,11.25
2024-02-14T17:56:12.789Z,12.23
2024-02-14T17:58:39.463Z,14.32
2024-02-14T18:01:06.877Z,10.17
2024-02-14T18:03:33.781Z,11.65
2024-02-14T18:06:00.818Z,10.10
2024-02-14T18:08:28.020Z,10.20
2024-02-14T18:10:54.948Z,11.40
2024-02-14T18:13:21.720Z,10.33
2024-02-14T18:15:50.304Z,12.13
2024-02-14T18:18:17.120Z,15.75
2024-02-14T18:20:43.962Z,10.13
2024-02-14T18:23:10.738Z,10.57
2024-02-14T18:25:37.427Z,13.67
2024-02-14T18:28:04.382Z,11.43
2024-02-14T18:30:34.193Z,11.10
2024-02-14T18:33:02.065Z,12.00
2024-02-14T18:35:28.937Z,15.95
2024-02-14T18:37:55.746Z,13.43
2024-02-14T18:40:22.523Z,17.00
2024-02-14T18:42:49.466Z,14.23
2024-02-14T18:45:16.243Z,14.25
2024-02-14T18:47:43.124Z,13.82
2024-02-14T18:50:10.237Z,16.63
2024-02-14T18:52:37.026Z,16.33
2024-02-14T18:55:03.967Z,16.35
2024-02-14T18:57:30.848Z,14.60
2024-02-14T19:00:02.883Z,14.18
2024-02-14T19:02:34.326Z,15.90
2024-02-14T19:05:01.254Z,16.45
2024-02-14T19:07:27.974Z,22.10
2024-02-14T19:09:54.847Z,17.20
2024-02-14T19:12:21.756Z,14.90
2024-02-14T19:14:50.361Z,11.53
2024-02-14T19:17:17.161Z,14.93
2024-02-14T19:19:45.168Z,12.57
2024-02-14T19:22:12.231Z,11.55
2024-02-14T19:24:40.581Z,11.23
2024-02-14T19:27:07.414Z,15.10
2024-02-14T19:29:34.393Z,14.88
2024-02-14T19:32:01.123Z,13.48
2024-02-14T19:34:28.824Z,16.45
2024-02-14T19:36:55.784Z,17.83
2024-02-14T19:39:23.397Z,17.30
2024-02-14T19:41:50.263Z,17.27
2024-02-14T19:44:16.999Z,14.77
2024-02-14T19:46:43.829Z,16.05
2024-02-14T19:49:12.700Z,14.88
2024-02-14T19:51:39.479Z,18.80
2024-02-14T19:54:06.370Z,15.48
2024-02-14T19:56:33.067Z,15.40
2024-02-14T19:58:59.764Z,15.93
2024-02-14T20:01:26.556Z,16.67
2024-02-14T20:03:57.731Z,25.47
2024-02-14T20:06:24.604Z,27.10
2024-02-14T20:08:51.562Z,19.25
2024-02-14T20:11:18.663Z,18.40
2024-02-14T20:13:45.364Z,15.48
2024-02-14T20:16:12.536Z,16.97
2024-02-14T20:18:39.557Z,18.55
2024-02-14T20:21:08.112Z,16.42
2024-02-14T20:23:35.455Z,15.35
2024-02-14T20:26:02.968Z,14.35
2024-02-14T20:28:30.171Z,16.20
2024-02-14T20:30:56.961Z,15.95
2024-02-14T20:33:25.795Z,14.65
2024-02-14T20:35:52.911Z,14.50
2024-02-14T20:38:19.623Z,10.60
2024-02-14T20:40:47.638Z,10.27
2024-02-14T20:43:14.403Z,10.45
2024-02-14T20:45:41.166Z,10.68
2024-02-14T20:48:09.090Z,10.15
2024-02-14T20:50:36.500Z,9.63
2024-02-14T20:53:04.477Z,17.17
2024-02-14T20:55:33.240Z,12.07
2024-02-14T20:58:01.372Z,12.68
2024-02-14T21:00:28.115Z,12.73
2024-02-14T21:02:55.031Z,12.07
2024-02-14T21:05:21.718Z,11.93
2024-02-14T21:07:48.507Z,11.65
2024-02-14T21:10:17.500Z,11.40
2024-02-14T21:12:45.618Z,15.15
2024-02-14T21:15:12.414Z,10.77
2024-02-14T21:17:39.280Z,13.37
2024-02-14T21:20:06.821Z,11.43
2024-02-14T21:22:35.017Z,15.07
2024-02-14T21:25:03.302Z,18.20
2024-02-14T21:27:30.395Z,14.30
2024-02-14T21:29:57.355Z,17.63
2024-02-14T21:32:24.157Z,14.13
2024-02-14T21:34:50.905Z,17.73
2024-02-14T21:37:18.097Z,9.88
2024-02-14T21:39:44.831Z,11.20
2024-02-14T21:42:11.589Z,11.77
2024-02-14T21:44:38.628Z,12.90
2024-02-14T21:47:08.946Z,12.07
2024-02-14T21:49:37.365Z,13.25
2024-02-14T21:52:07.954Z,10.13
2024-02-14T21:54:35.081Z,11.87
2024-02-14T21:57:02.345Z,11.32
2024-02-14T21:59:29.512Z,12.15
2024-02-14T22:01:57.494Z,12.15
2024-02-14T22:04:24.594Z,11.30
2024-02-14T22:06:51.842Z,10.90
2024-02-14T22:09:22.183Z,12.20
2024-02-14T22:11:49.372Z,16.45
2024-02-14T22:14:16.268Z,11.05
2024-02-14T22:16:43.319Z,11.50
2024-02-14T22:19:13.838Z,10.23
2024-02-14T22:21:41.114Z,9.98
2024-02-14T22:24:10.217Z,14.32
2024-02-14T22:26:37.089Z,14.98
2024-02-14T22:29:04.000Z,25.23
2024-02-14T22:31:30.733Z,19.80
2024-02-14T22:33:57.832Z,20.83
2024-02-14T22:36:25.654Z,19.05
2024-02-14T22:38:52.905Z,18.33
2024-02-14T22:41:22.920Z,18.02
2024-02-14T22:43:54.013Z,17.77
2024-02-14T22:46:21.025Z,18.65
2024-02-14T22:48:48.332Z,20.38
2024-02-14T22:51:15.863Z,19.08
2024-02-14T22:53:42.717Z,19.38
2024-02-14T22:56:11.337Z,17.77
2024-02-14T22:58:39.280Z,15.07
2024-02-14T23:01:06.787Z,17.23
2024-02-14T23:03:33.861Z,15.40
2024-02-14T23:06:03.308Z,13.68
2024-02-14T23:08:30.246Z,12.63
2024-02-14T23:10:57.088Z,13.30
2024-02-14T23:13:23.765Z,14.05
2024-02-14T23:15:53.198Z,14.52
2024-02-14T23:18:20.923Z,13.40
2024-02-14T23:20:48.558Z,11.43
2024-02-14T23:23:15.357Z,12.30
2024-02-14T23:25:42.203Z,15.48
2024-02-14T23:28:08.940Z,12.70
2024-02-14T23:30:36.374Z,12.52
2024-02-14T23:33:03.592Z,12.27
2024-02-14T23:35:30.526Z,12.70
2024-02-14T23:37:57.669Z,12.00
2024-02-14T23:40:24.548Z,12.95
2024-02-14T23:42:51.245Z,19.15
2024-02-14T23:45:18.107Z,13.13
2024-02-14T23:47:45.095Z,15.55
2024-02-14T23:50:13.716Z,11.73
2024-02-14T23:52:40.766Z,10.90
2024-02-14T23:55:07.734Z,10.48
2024-02-14T23:57:34.753Z,10.73
